SVHD weather

Hacienda El Calvario Airport
Zulia, Venezuela

Public forecast

Using degrees Celsius for public forecast. Weather courtesy of forecast.io.

Closest aviation weather report (METAR) to Hacienda El Calvario Airport

Closest report is Alfonso L√≥pez Pumarejo Airport, 52.4 nm (97.0 km) NW. Retrieved 2019/10/17 15:00 UTC (16 minutes ago):

SKVP 171500Z 19003KT 9999 FEW020 30/23 A2996

Closest aviation forecast (TAF) to Hacienda El Calvario Airport

Forecast is more than 12 hours old.

Closest forecast is Villa del Rosario Airport, 29.1 nm (53.8 km) NNE. Retrieved 2019/09/09 18:00 UTC (1 month ago):

TAF SVVS 091700Z 0918/1018 18004KT 9999 BKN016 TX30/0919Z TN22/1008Z TEMPO 0919/0921 9000 DZ TEMPO 0922/1002 24005KT 9999 SCT016 SCT150